Time;durP1;ratioP1;P1;durP2;ratioP2;P2;SDS_P1;SDS_P2;PMS_P1;PMS_P2;Temp;Humidity;BMP_temperature;BMP_pressure;BME280_temperature;BME280_humidity;BME280_pressure;Samples;Min_cycle;Max_cycle;Signal;HPM_P1;HPM_P2
2021/06/05 00:01:21;;;;;;;5.45;5.05;;;23.90;58.10;;;;;;5035400;28;20230;-64
2021/06/05 00:03:48;;;;;;;5.15;4.75;;;23.90;58.10;;;;;;5034453;28;20174;-64
2021/06/05 00:06:17;;;;;;;5.45;4.95;;;23.90;58.10;;;;;;5035619;28;20183;-65
2021/06/05 00:08:42;;;;;;;5.25;4.85;;;23.90;58.10;;;;;;5034929;28;20180;-64
2021/06/05 00:11:09;;;;;;;4.97;4.60;;;23.90;58.10;;;;;;5034593;28;20180;-63
2021/06/05 00:13:46;;;;;;;4.90;4.50;;;23.90;58.10;;;;;;5034801;28;20763;-63
2021/06/05 00:16:16;;;;;;;5.05;4.55;;;23.90;58.10;;;;;;5035145;28;20190;-64
2021/06/05 00:18:43;;;;;;;5.00;4.60;;;23.90;58.10;;;;;;5034457;28;20168;-64
2021/06/05 00:21:08;;;;;;;4.57;4.28;;;23.90;58.10;;;;;;5035166;28;20241;-63
2021/06/05 00:23:34;;;;;;;5.05;4.65;;;23.90;58.10;;;;;;5034677;28;20180;-63
2021/06/05 00:25:59;;;;;;;5.32;4.93;;;23.90;58.10;;;;;;5034445;28;20309;-63
2021/06/05 00:28:25;;;;;;;5.30;4.90;;;23.90;58.10;;;;;;5034869;28;20176;-63
2021/06/05 00:30:50;;;;;;;4.82;4.45;;;23.90;58.10;;;;;;5034525;28;20228;-63
2021/06/05 00:33:16;;;;;;;5.00;4.60;;;23.90;58.10;;;;;;5034221;28;20689;-63
2021/06/05 00:35:41;;;;;;;5.32;4.82;;;23.90;58.10;;;;;;5034654;28;20183;-64
2021/06/05 00:38:07;;;;;;;5.03;4.63;;;23.90;58.10;;;;;;5034412;28;20231;-64
2021/06/05 00:40:35;;;;;;;5.10;4.70;;;23.90;58.10;;;;;;5033999;28;20180;-64
2021/06/05 00:43:01;;;;;;;5.03;4.60;;;23.80;58.10;;;;;;5034540;28;20194;-64
2021/06/05 00:45:28;;;;;;;5.30;4.80;;;23.80;58.10;;;;;;5034660;28;20172;-64
2021/06/05 00:47:54;;;;;;;4.88;4.57;;;23.90;58.10;;;;;;5033787;28;20584;-64
2021/06/05 00:50:20;;;;;;;5.20;4.80;;;23.80;58.10;;;;;;5034597;28;20712;-64
2021/06/05 00:52:45;;;;;;;4.93;4.53;;;23.80;58.10;;;;;;5032317;28;20270;-64
2021/06/05 00:55:12;;;;;;;5.03;4.63;;;23.80;58.10;;;;;;5033212;28;20627;-63
2021/06/05 00:57:37;;;;;;;5.07;4.68;;;23.80;58.10;;;;;;5032929;28;20263;-63
2021/06/05 01:00:31;;;;;;;5.43;5.03;;;23.90;58.10;;;;;;5033086;28;20188;-63
2021/06/05 01:03:00;;;;;;;4.80;4.40;;;23.80;58.10;;;;;;5025802;28;20180;-64
2021/06/05 01:05:26;;;;;;;5.10;4.70;;;23.80;58.10;;;;;;5032919;28;20569;-64
2021/06/05 01:07:51;;;;;;;5.25;4.85;;;23.80;58.10;;;;;;5032050;28;20238;-64
2021/06/05 01:10:19;;;;;;;5.22;4.82;;;23.80;58.10;;;;;;5034407;28;20171;-64
2021/06/05 01:13:06;;;;;;;5.15;4.68;;;23.80;58.10;;;;;;5033676;28;20190;-63
2021/06/05 01:15:32;;;;;;;5.28;4.88;;;23.80;58.10;;;;;;5032134;28;20252;-64
2021/06/05 01:18:02;;;;;;;5.28;4.88;;;23.80;58.10;;;;;;5033977;28;20251;-63
2021/06/05 01:21:06;;;;;;;5.00;4.60;;;23.70;58.10;;;;;;5032606;28;20207;-64
2021/06/05 01:23:57;;;;;;;4.50;4.20;;;23.80;58.20;;;;;;5033746;28;20179;-63
2021/06/05 01:26:36;;;;;;;5.30;4.90;;;23.80;58.20;;;;;;5032720;28;20199;-63
2021/06/05 01:29:22;;;;;;;5.25;4.85;;;23.80;58.10;;;;;;5031982;28;20167;-63
2021/06/05 01:31:56;;;;;;;4.95;4.57;;;23.80;58.20;;;;;;5032083;28;20543;-63
2021/06/05 01:34:23;;;;;;;5.40;4.90;;;23.70;58.10;;;;;;5033453;28;20221;-63
2021/06/05 01:36:50;;;;;;;4.97;4.57;;;23.80;58.20;;;;;;5031549;28;20234;-64
2021/06/05 01:39:18;;;;;;;4.90;4.50;;;23.70;58.10;;;;;;5032268;28;20224;-64
2021/06/05 01:41:44;;;;;;;5.53;5.03;;;23.70;58.10;;;;;;5031984;28;20183;-63
2021/06/05 01:44:10;;;;;;;4.50;4.20;;;23.70;58.10;;;;;;5031980;28;20676;-64
2021/06/05 01:46:38;;;;;;;5.38;4.88;;;23.70;58.10;;;;;;5032140;28;20714;-64
2021/06/05 01:49:04;;;;;;;4.80;4.47;;;23.70;58.10;;;;;;5031502;28;20263;-64
2021/06/05 01:51:29;;;;;;;4.63;4.32;;;23.70;58.10;;;;;;5032337;28;20319;-63
2021/06/05 01:54:05;;;;;;;4.97;4.68;;;23.70;58.10;;;;;;5031682;28;20640;-64
2021/06/05 01:56:43;;;;;;;4.80;4.45;;;23.70;58.10;;;;;;5031722;28;20171;-63
2021/06/05 01:59:11;;;;;;;4.90;4.53;;;23.70;58.20;;;;;;5032125;28;20638;-63
2021/06/05 02:01:37;;;;;;;5.50;5.10;;;23.70;58.10;;;;;;5032706;28;20184;-64
2021/06/05 02:04:02;;;;;;;5.35;4.85;;;23.70;58.10;;;;;;5032537;28;20176;-64
2021/06/05 02:06:28;;;;;;;4.45;4.15;;;23.70;58.10;;;;;;5033310;28;20179;-64
2021/06/05 02:08:54;;;;;;;5.13;4.72;;;23.70;58.20;;;;;;5032727;28;20181;-64
2021/06/05 02:11:21;;;;;;;4.97;4.57;;;23.70;58.10;;;;;;5030958;28;20573;-64
2021/06/05 02:14:13;;;;;;;4.72;4.32;;;23.70;58.10;;;;;;5031326;28;20219;-64
2021/06/05 02:16:46;;;;;;;4.90;4.57;;;23.70;58.10;;;;;;5028544;28;20648;-64
2021/06/05 02:19:33;;;;;;;4.95;4.55;;;23.70;58.20;;;;;;5032758;28;20180;-64
2021/06/05 02:22:00;;;;;;;5.18;4.78;;;23.70;58.20;;;;;;5033058;28;20180;-63
2021/06/05 02:24:33;;;;;;;5.43;5.03;;;23.70;58.20;;;;;;5032401;28;20176;-63
2021/06/05 02:26:59;;;;;;;5.00;4.70;;;23.70;58.20;;;;;;5031650;28;20186;-63
2021/06/05 02:29:27;;;;;;;4.55;4.25;;;23.70;58.20;;;;;;5031625;28;20176;-63
2021/06/05 02:31:52;;;;;;;5.55;5.15;;;23.70;58.20;;;;;;5030904;28;20242;-63
2021/06/05 02:34:21;;;;;;;5.30;4.90;;;23.70;58.20;;;;;;5031503;28;20338;-64
2021/06/05 02:36:48;;;;;;;5.07;4.68;;;23.70;58.20;;;;;;5030947;28;20538;-64
2021/06/05 02:39:15;;;;;;;4.88;4.57;;;23.70;58.20;;;;;;5031672;28;20216;-64
2021/06/05 02:41:42;;;;;;;5.13;4.72;;;23.70;58.20;;;;;;5032525;28;20233;-63
2021/06/05 02:44:07;;;;;;;4.95;4.65;;;23.70;58.20;;;;;;5032817;28;20226;-64
2021/06/05 02:46:35;;;;;;;5.28;4.88;;;23.70;58.80;;;;;;5030927;28;20577;-64
2021/06/05 02:49:19;;;;;;;5.22;4.82;;;23.70;58.20;;;;;;5032627;28;20207;-64
2021/06/05 02:51:49;;;;;;;5.43;5.03;;;23.70;58.20;;;;;;5032108;28;20214;-64
2021/06/05 02:54:14;;;;;;;5.00;4.60;;;23.70;58.20;;;;;;5032004;28;20215;-64
2021/06/05 02:56:40;;;;;;;5.95;5.45;;;23.70;58.20;;;;;;5032345;28;20175;-63
2021/06/05 02:59:05;;;;;;;5.32;4.82;;;23.60;58.20;;;;;;5032132;28;20229;-63
2021/06/05 03:01:31;;;;;;;5.50;5.00;;;23.60;58.20;;;;;;5031812;28;20172;-64
2021/06/05 03:03:57;;;;;;;5.47;4.97;;;23.70;58.20;;;;;;5032505;28;20649;-64
2021/06/05 03:06:22;;;;;;;5.18;4.78;;;23.60;58.20;;;;;;5031967;28;20263;-64
2021/06/05 03:08:48;;;;;;;5.47;5.00;;;23.70;58.20;;;;;;5031992;28;20179;-64
2021/06/05 03:11:16;;;;;;;5.88;5.47;;;23.60;58.20;;;;;;5032438;28;20583;-63
2021/06/05 03:13:42;;;;;;;6.15;5.65;;;23.60;58.20;;;;;;5031734;28;20241;-64
2021/06/05 03:16:07;;;;;;;5.53;5.00;;;23.60;58.20;;;;;;5032549;28;20204;-64
2021/06/05 03:18:33;;;;;;;5.70;5.30;;;23.60;58.20;;;;;;5032105;28;20186;-63
2021/06/05 03:20:58;;;;;;;5.43;4.97;;;23.60;58.20;;;;;;5031803;28;20187;-63
2021/06/05 03:23:25;;;;;;;5.15;4.75;;;23.60;58.20;;;;;;5033670;28;20577;-63
2021/06/05 03:25:51;;;;;;;6.03;5.50;;;23.60;58.20;;;;;;5035496;28;20660;-63
2021/06/05 03:28:18;;;;;;;5.05;4.70;;;23.60;58.80;;;;;;5035751;28;20175;-63
2021/06/05 03:30:43;;;;;;;5.45;4.97;;;23.60;58.20;;;;;;5035525;28;20634;-63
2021/06/05 03:33:09;;;;;;;5.22;4.82;;;23.60;58.20;;;;;;5035795;28;20172;-63
2021/06/05 03:35:34;;;;;;;4.95;4.55;;;23.60;58.20;;;;;;5035140;28;20219;-64
2021/06/05 03:38:00;;;;;;;5.10;4.70;;;23.60;58.20;;;;;;5036105;28;20207;-64
2021/06/05 03:40:28;;;;;;;5.35;4.95;;;23.60;58.20;;;;;;5035493;28;20235;-64
2021/06/05 03:42:55;;;;;;;5.72;5.22;;;23.60;58.20;;;;;;5035122;28;20210;-64
2021/06/05 03:45:21;;;;;;;5.45;5.05;;;23.60;58.20;;;;;;5035917;28;20180;-64
2021/06/05 03:47:46;;;;;;;5.13;4.72;;;23.60;58.20;;;;;;5035205;28;20230;-64
2021/06/05 03:50:12;;;;;;;5.97;5.47;;;23.60;58.20;;;;;;5035227;28;20183;-64
2021/06/05 03:52:38;;;;;;;5.38;4.97;;;23.60;58.20;;;;;;5035348;28;20495;-64
2021/06/05 03:55:04;;;;;;;5.53;5.13;;;23.60;58.20;;;;;;5035181;28;20285;-63
2021/06/05 03:57:32;;;;;;;6.43;5.93;;;23.60;58.20;;;;;;5035194;28;20168;-64
2021/06/05 03:59:58;;;;;;;5.57;5.18;;;23.60;58.20;;;;;;5035471;28;20646;-64
2021/06/05 04:02:23;;;;;;;5.70;5.20;;;23.60;58.20;;;;;;5035289;28;20198;-64
2021/06/05 04:04:49;;;;;;;5.68;5.13;;;23.60;58.20;;;;;;5034369;28;20172;-64
2021/06/05 04:07:16;;;;;;;6.20;5.70;;;23.60;58.20;;;;;;5035630;28;20630;-64
2021/06/05 04:09:41;;;;;;;5.68;5.18;;;23.60;58.10;;;;;;5034341;28;20630;-64
2021/06/05 04:12:07;;;;;;;5.60;5.20;;;23.60;58.10;;;;;;5035364;28;20179;-63
2021/06/05 04:14:33;;;;;;;5.90;5.50;;;23.60;58.10;;;;;;5034791;28;20207;-64
2021/06/05 04:16:58;;;;;;;5.93;5.43;;;23.60;58.10;;;;;;5034703;28;20172;-63
2021/06/05 04:19:24;;;;;;;5.80;5.38;;;23.50;58.10;;;;;;5035072;28;20510;-64
2021/06/05 04:21:50;;;;;;;6.15;5.65;;;23.60;58.10;;;;;;5034649;28;20192;-63
2021/06/05 04:24:15;;;;;;;6.07;5.57;;;23.60;58.20;;;;;;5034746;28;20310;-63
2021/06/05 04:26:41;;;;;;;6.20;5.70;;;23.60;58.10;;;;;;5034916;28;20672;-63
2021/06/05 04:29:06;;;;;;;6.10;5.60;;;23.60;58.10;;;;;;5034677;28;20176;-63
2021/06/05 04:31:32;;;;;;;6.47;5.88;;;23.50;58.00;;;;;;5034280;28;20175;-64
2021/06/05 04:33:57;;;;;;;6.00;5.50;;;23.60;58.10;;;;;;5034502;28;20266;-64
2021/06/05 04:36:23;;;;;;;6.18;5.68;;;23.60;58.10;;;;;;5033983;28;20266;-64
2021/06/05 04:38:48;;;;;;;8.10;6.18;;;23.50;58.00;;;;;;5033742;28;20225;-64
2021/06/05 04:41:15;;;;;;;5.65;5.20;;;23.60;58.00;;;;;;5034943;28;20230;-64
2021/06/05 04:43:41;;;;;;;5.68;5.28;;;23.60;58.00;;;;;;5034353;28;20180;-64
2021/06/05 04:46:07;;;;;;;6.25;5.75;;;23.60;58.00;;;;;;5033974;28;20178;-64
2021/06/05 04:48:32;;;;;;;6.07;5.60;;;23.50;58.00;;;;;;5034186;28;20203;-64
2021/06/05 04:50:58;;;;;;;6.30;5.80;;;23.50;58.00;;;;;;5034203;28;20190;-64
2021/06/05 04:53:24;;;;;;;6.13;5.63;;;23.50;58.00;;;;;;5034168;28;20172;-64
2021/06/05 04:55:49;;;;;;;6.13;5.63;;;23.50;57.90;;;;;;5034197;28;20176;-63
2021/06/05 04:58:16;;;;;;;5.68;5.28;;;23.60;58.00;;;;;;5034297;28;20601;-63
2021/06/05 05:00:43;;;;;;;6.35;5.85;;;23.60;57.90;;;;;;5033499;28;20184;-64
2021/06/05 05:03:10;;;;;;;6.45;5.70;;;23.60;57.90;;;;;;5034267;28;20176;-64
2021/06/05 05:05:36;;;;;;;6.70;6.10;;;23.60;57.90;;;;;;5033987;28;20172;-64
2021/06/05 05:08:01;;;;;;;6.05;5.55;;;23.60;57.90;;;;;;5033630;28;20198;-64
2021/06/05 05:10:30;;;;;;;6.50;6.00;;;23.60;57.90;;;;;;5034115;28;20638;-64
2021/06/05 05:12:56;;;;;;;5.95;5.45;;;23.60;57.90;;;;;;5033819;28;20183;-64
2021/06/05 05:15:22;;;;;;;6.00;5.50;;;23.60;57.80;;;;;;5033739;28;20286;-64
2021/06/05 05:17:47;;;;;;;6.32;5.72;;;23.60;57.90;;;;;;5033376;28;20656;-64
2021/06/05 05:20:14;;;;;;;6.50;5.90;;;23.60;57.80;;;;;;5033568;28;20259;-64
2021/06/05 05:22:40;;;;;;;6.15;5.65;;;23.60;57.80;;;;;;5033885;28;20517;-63
2021/06/05 05:25:06;;;;;;;6.30;5.70;;;23.60;57.90;;;;;;5033737;28;20179;-63
2021/06/05 05:27:32;;;;;;;5.88;5.45;;;23.60;57.90;;;;;;5033180;28;20187;-63
2021/06/05 05:29:57;;;;;;;6.53;5.93;;;23.50;57.80;;;;;;5033750;28;20192;-63
2021/06/05 05:32:23;;;;;;;6.43;5.93;;;23.50;57.90;;;;;;5033475;28;20649;-63
2021/06/05 05:34:48;;;;;;;5.70;5.30;;;23.50;57.80;;;;;;5032664;28;20223;-64
2021/06/05 05:37:14;;;;;;;6.30;5.80;;;23.50;57.90;;;;;;5033602;28;20575;-64
2021/06/05 05:39:39;;;;;;;6.95;6.35;;;23.50;57.90;;;;;;5032807;28;20309;-64
2021/06/05 05:42:05;;;;;;;6.25;5.78;;;23.50;57.90;;;;;;5032988;28;20175;-64
2021/06/05 05:44:30;;;;;;;6.15;5.65;;;23.50;57.90;;;;;;5032251;28;20208;-64
2021/06/05 05:46:56;;;;;;;6.43;5.95;;;23.50;57.90;;;;;;5032951;28;20529;-64
2021/06/05 05:49:21;;;;;;;6.32;5.72;;;23.50;57.90;;;;;;5033185;28;20645;-64
2021/06/05 05:51:47;;;;;;;5.80;5.38;;;23.50;58.00;;;;;;5033237;28;20175;-63
2021/06/05 05:54:13;;;;;;;6.38;5.88;;;23.50;57.90;;;;;;5033188;28;20207;-63
2021/06/05 05:56:39;;;;;;;6.28;5.78;;;23.50;57.90;;;;;;5032511;28;20167;-63
2021/06/05 05:59:04;;;;;;;5.97;5.47;;;23.50;57.90;;;;;;5033063;28;20198;-63
2021/06/05 06:01:30;;;;;;;6.60;6.00;;;23.60;57.90;;;;;;5032896;28;20176;-63
2021/06/05 06:03:56;;;;;;;6.22;5.72;;;23.50;57.80;;;;;;5032706;28;20225;-64
2021/06/05 06:06:22;;;;;;;6.20;5.70;;;23.50;57.80;;;;;;5033340;28;20187;-64
2021/06/05 06:08:48;;;;;;;6.70;6.20;;;23.50;57.80;;;;;;5031545;28;20245;-64
2021/06/05 06:11:14;;;;;;;5.95;5.45;;;23.50;57.80;;;;;;5032447;28;20638;-63
2021/06/05 06:13:39;;;;;;;6.20;5.70;;;23.50;57.80;;;;;;5032519;28;20191;-63
2021/06/05 06:16:18;;;;;;;6.30;5.80;;;23.50;57.80;;;;;;5130766;27;20750;-64
2021/06/05 06:18:44;;;;;;;6.55;5.95;;;23.60;57.90;;;;;;5131017;28;20319;-64
2021/06/05 06:21:10;;;;;;;6.55;5.95;;;23.60;57.80;;;;;;5131054;27;20310;-64
2021/06/05 06:23:37;;;;;;;5.60;5.10;;;23.50;57.80;;;;;;5130203;28;21006;-64
2021/06/05 06:26:04;;;;;;;6.13;5.63;;;23.60;57.80;;;;;;5131058;28;20204;-63
2021/06/05 06:28:32;;;;;;;6.57;6.07;;;23.60;57.80;;;;;;5130597;28;20172;-63
2021/06/05 06:30:57;;;;;;;6.53;6.03;;;23.60;57.80;;;;;;5130174;28;20522;-64
2021/06/05 06:33:23;;;;;;;5.93;5.43;;;23.60;57.70;;;;;;5131055;28;20664;-64
2021/06/05 06:35:49;;;;;;;6.30;5.72;;;23.60;57.80;;;;;;5130230;28;20704;-65
2021/06/05 06:38:19;;;;;;;6.20;5.70;;;23.60;57.70;;;;;;5130387;28;20176;-64
2021/06/05 06:40:45;;;;;;;5.68;5.28;;;23.60;57.70;;;;;;5130565;28;20176;-64
2021/06/05 06:43:12;;;;;;;5.65;5.15;;;23.60;57.70;;;;;;5130455;28;20183;-64
2021/06/05 06:45:38;;;;;;;6.65;6.05;;;23.60;57.70;;;;;;5130001;28;20184;-64
2021/06/05 06:48:04;;;;;;;6.18;5.68;;;23.60;57.80;;;;;;5130434;28;20553;-65
2021/06/05 06:50:30;;;;;;;6.25;5.75;;;23.60;57.80;;;;;;5130329;27;20168;-64
2021/06/05 06:52:55;;;;;;;6.72;6.13;;;23.60;57.70;;;;;;5129897;28;20172;-64
2021/06/05 06:55:21;;;;;;;6.50;5.95;;;23.60;57.70;;;;;;5130573;28;20205;-63
2021/06/05 06:57:47;;;;;;;6.15;5.65;;;23.60;57.70;;;;;;5129687;28;20173;-63
2021/06/05 07:00:16;;;;;;;6.30;5.80;;;23.60;57.70;;;;;;5129849;28;20173;-64
2021/06/05 07:02:41;;;;;;;6.53;5.93;;;23.60;57.70;;;;;;5130153;28;20176;-64
2021/06/05 07:05:07;;;;;;;6.15;5.70;;;23.60;57.70;;;;;;5130188;28;20176;-65
2021/06/05 07:07:33;;;;;;;5.68;5.28;;;23.70;57.70;;;;;;5129373;27;20274;-64
2021/06/05 07:09:58;;;;;;;5.95;5.45;;;23.70;57.70;;;;;;5129909;28;20172;-63
2021/06/05 07:12:24;;;;;;;5.90;5.50;;;23.70;57.70;;;;;;5130286;28;20176;-65
2021/06/05 07:14:49;;;;;;;6.10;5.60;;;23.70;57.70;;;;;;5129034;28;20367;-65
2021/06/05 07:17:15;;;;;;;5.80;5.30;;;23.70;57.70;;;;;;5129916;27;20180;-62
2021/06/05 07:19:40;;;;;;;6.10;5.60;;;23.70;57.70;;;;;;5129310;28;20173;-62
2021/06/05 07:22:06;;;;;;;6.65;6.15;;;23.70;57.70;;;;;;5129999;28;20184;-62
2021/06/05 07:24:31;;;;;;;6.55;6.05;;;23.70;57.70;;;;;;5128148;28;20172;-61
2021/06/05 07:26:57;;;;;;;6.53;5.93;;;23.70;57.80;;;;;;5119704;28;20200;-62
2021/06/05 07:29:22;;;;;;;5.90;5.40;;;23.70;57.90;;;;;;5116064;28;20165;-62
2021/06/05 07:31:52;;;;;;;6.43;5.90;;;23.60;58.00;;;;;;5115406;28;20615;-62
2021/06/05 07:34:22;;;;;;;6.80;6.18;;;23.60;58.00;;;;;;5115588;28;20201;-63
2021/06/05 07:36:55;;;;;;;6.30;5.70;;;23.60;58.00;;;;;;5115677;28;20188;-63
2021/06/05 07:39:23;;;;;;;6.40;5.90;;;23.60;58.20;;;;;;5115732;28;20173;-62
2021/06/05 07:41:49;;;;;;;6.80;6.22;;;23.60;58.20;;;;;;5114917;28;20177;-62
2021/06/05 07:44:15;;;;;;;6.82;6.22;;;23.60;58.10;;;;;;5115695;28;20177;-62
2021/06/05 07:46:42;;;;;;;6.43;5.93;;;23.60;58.10;;;;;;5115395;28;20173;-63
2021/06/05 07:49:07;;;;;;;6.43;5.93;;;23.60;58.20;;;;;;5115269;28;20229;-63
2021/06/05 07:51:33;;;;;;;6.72;6.13;;;23.60;58.20;;;;;;5115506;28;20169;-63
2021/06/05 07:53:58;;;;;;;6.82;6.20;;;23.60;58.20;;;;;;5115224;28;20223;-62
2021/06/05 07:56:24;;;;;;;6.07;5.47;;;23.60;58.20;;;;;;5115018;28;20506;-62
2021/06/05 07:58:49;;;;;;;8.15;7.35;;;23.50;58.20;;;;;;5115390;28;20165;-62
2021/06/05 08:01:15;;;;;;;7.45;6.80;;;23.60;58.30;;;;;;5115247;28;20209;-62
2021/06/05 08:03:40;;;;;;;7.30;6.70;;;23.60;58.30;;;;;;5114849;28;20169;-62
2021/06/05 08:06:06;;;;;;;6.50;5.90;;;23.60;58.40;;;;;;5115055;28;20196;-62
2021/06/05 08:08:31;;;;;;;6.75;6.15;;;23.60;58.40;;;;;;5115177;28;20525;-63
2021/06/05 08:10:57;;;;;;;7.35;6.65;;;23.60;58.40;;;;;;5114677;28;20185;-62
2021/06/05 08:13:22;;;;;;;7.00;6.40;;;23.60;58.40;;;;;;5115130;28;20201;-62
2021/06/05 08:15:49;;;;;;;6.63;6.07;;;23.50;58.40;;;;;;5114235;28;20224;-61
2021/06/05 08:18:15;;;;;;;6.20;5.70;;;23.50;58.40;;;;;;5114907;28;20169;-62
2021/06/05 08:20:43;;;;;;;6.32;5.93;;;23.60;58.50;;;;;;5114698;28;20578;-63
2021/06/05 08:23:10;;;;;;;6.53;6.00;;;23.50;58.50;;;;;;5112867;28;20165;-63
2021/06/05 08:25:35;;;;;;;6.85;6.22;;;23.50;58.40;;;;;;5113931;28;20183;-63
2021/06/05 08:28:01;;;;;;;7.18;6.55;;;23.60;58.40;;;;;;5114573;28;20264;-63
2021/06/05 08:30:35;;;;;;;6.43;5.93;;;23.60;58.40;;;;;;5114198;28;20181;-63
2021/06/05 08:33:01;;;;;;;7.07;6.47;;;23.60;58.40;;;;;;5114855;28;20198;-63
2021/06/05 08:35:26;;;;;;;6.40;5.90;;;23.60;58.40;;;;;;5114564;28;20197;-63
2021/06/05 08:37:52;;;;;;;6.50;5.80;;;23.50;58.40;;;;;;5112926;28;20174;-63
2021/06/05 08:40:35;;;;;;;6.32;5.72;;;23.60;58.40;;;;;;5114807;28;20264;-63
2021/06/05 08:43:01;;;;;;;6.88;6.28;;;23.60;58.50;;;;;;5114548;28;20257;-63
2021/06/05 08:45:29;;;;;;;6.55;5.82;;;23.50;58.40;;;;;;5112774;28;20256;-63
2021/06/05 08:47:54;;;;;;;6.55;5.95;;;23.50;58.40;;;;;;5096452;28;20689;-63
2021/06/05 08:50:28;;;;;;;6.88;6.13;;;23.50;58.50;;;;;;5114235;28;20256;-63
2021/06/05 08:53:03;;;;;;;6.40;5.80;;;23.50;58.50;;;;;;5113808;28;20180;-63
2021/06/05 08:55:42;;;;;;;7.05;6.35;;;23.60;58.50;;;;;;5097285;28;20231;-63
2021/06/05 08:58:39;;;;;;;7.00;6.40;;;23.60;58.50;;;;;;5112484;28;20222;-63
2021/06/05 09:01:15;;;;;;;6.68;6.07;;;23.60;58.40;;;;;;5114453;28;20180;-63
2021/06/05 09:03:41;;;;;;;7.63;6.93;;;23.60;58.40;;;;;;5112855;28;20173;-64
2021/06/05 09:06:20;;;;;;;6.53;5.95;;;23.60;58.40;;;;;;5113591;28;20635;-63
2021/06/05 09:08:46;;;;;;;6.78;6.18;;;23.60;58.40;;;;;;5112688;28;20585;-63
2021/06/05 09:11:12;;;;;;;6.57;6.07;;;23.60;58.30;;;;;;5113838;28;20259;-63
2021/06/05 09:13:38;;;;;;;6.63;5.97;;;23.70;58.30;;;;;;5113571;28;20173;-63
2021/06/05 09:16:18;;;;;;;6.03;5.55;;;23.70;58.20;;;;;;5113704;28;20281;-63
2021/06/05 09:19:10;;;;;;;7.00;6.40;;;23.70;58.20;;;;;;5113689;28;20180;-63
2021/06/05 09:21:39;;;;;;;6.63;6.05;;;23.70;58.20;;;;;;5099225;28;20189;-63
2021/06/05 09:24:24;;;;;;;6.60;6.00;;;23.70;58.20;;;;;;5113698;28;20206;-62
2021/06/05 09:27:10;;;;;;;6.25;5.75;;;23.70;58.20;;;;;;5113162;28;20179;-63
2021/06/05 09:30:02;;;;;;;6.65;6.10;;;23.70;58.20;;;;;;5113422;28;20197;-63
2021/06/05 09:32:28;;;;;;;5.78;5.28;;;23.70;58.10;;;;;;5113790;28;20177;-63
2021/06/05 09:35:14;;;;;;;5.78;5.38;;;23.80;58.00;;;;;;5112877;28;20217;-63
2021/06/05 09:37:44;;;;;;;6.97;5.57;;;23.90;57.90;;;;;;5113151;28;20181;-63
2021/06/05 09:40:19;;;;;;;5.95;5.38;;;24.00;57.70;;;;;;5113577;28;20177;-63
2021/06/05 09:42:47;;;;;;;6.40;5.90;;;24.00;57.70;;;;;;5113338;28;20222;-63
2021/06/05 09:45:36;;;;;;;6.22;5.72;;;24.00;57.70;;;;;;5113428;28;20169;-63
2021/06/05 09:48:28;;;;;;;5.45;4.95;;;23.90;57.90;;;;;;5111771;28;20196;-63
2021/06/05 09:50:55;;;;;;;6.50;6.00;;;23.90;58.00;;;;;;5113049;28;20256;-63
2021/06/05 09:53:32;;;;;;;6.93;6.32;;;23.80;58.10;;;;;;5113468;28;20203;-63
2021/06/05 09:56:06;;;;;;;6.10;5.60;;;23.80;58.10;;;;;;5112938;28;20244;-63
2021/06/05 09:58:45;;;;;;;6.40;5.90;;;23.80;58.20;;;;;;5111667;28;20635;-63
2021/06/05 10:01:25;;;;;;;5.30;4.90;;;23.80;58.20;;;;;;5113188;28;20259;-63
2021/06/05 10:03:53;;;;;;;6.38;5.88;;;23.80;58.20;;;;;;5111901;28;20181;-63
2021/06/05 10:06:35;;;;;;;5.82;5.32;;;23.80;58.10;;;;;;5111887;28;20188;-63
2021/06/05 10:09:39;;;;;;;6.15;5.65;;;23.90;58.10;;;;;;5111523;28;20177;-63
2021/06/05 10:12:21;;;;;;;5.50;5.03;;;23.90;58.10;;;;;;5111320;28;20215;-63
2021/06/05 10:15:12;;;;;;;5.20;4.80;;;23.90;58.00;;;;;;5111453;28;20256;-63
2021/06/05 10:17:50;;;;;;;5.97;5.47;;;23.90;58.00;;;;;;5111071;28;20185;-62
2021/06/05 10:20:48;;;;;;;5.30;4.90;;;23.90;58.00;;;;;;5113044;28;20176;-63
2021/06/05 10:23:23;;;;;;;5.63;5.22;;;23.90;58.10;;;;;;5111515;28;20508;-62
2021/06/05 10:25:50;;;;;;;5.47;4.95;;;23.90;58.20;;;;;;5111652;28;20183;-63
2021/06/05 10:28:18;;;;;;;5.57;5.18;;;23.90;58.40;;;;;;5112711;28;20230;-63
2021/06/05 10:31:03;;;;;;;5.15;4.75;;;23.90;58.30;;;;;;5111116;28;20183;-62
2021/06/05 10:33:44;;;;;;;5.35;4.80;;;23.90;58.30;;;;;;5111702;28;20176;-62
2021/06/05 10:36:26;;;;;;;5.50;5.00;;;23.90;58.40;;;;;;5111541;28;20564;-62
2021/06/05 10:39:00;;;;;;;5.55;5.05;;;23.90;58.40;;;;;;5110689;28;20560;-62
2021/06/05 10:41:28;;;;;;;5.30;4.90;;;23.80;58.60;;;;;;5111723;28;20257;-62
2021/06/05 10:43:54;;;;;;;5.50;5.00;;;23.80;58.60;;;;;;5112135;28;20169;-62
2021/06/05 10:46:28;;;;;;;7.25;5.75;;;23.80;58.70;;;;;;5112965;28;20165;-62
2021/06/05 10:49:08;;;;;;;4.85;4.45;;;23.80;58.80;;;;;;5112241;28;20176;-62
2021/06/05 10:51:34;;;;;;;5.10;4.63;;;23.80;58.80;;;;;;5111142;28;20176;-63
2021/06/05 10:54:15;;;;;;;5.22;4.82;;;23.80;58.80;;;;;;5111761;28;20173;-63
2021/06/05 10:57:03;;;;;;;5.57;5.15;;;23.80;58.80;;;;;;5111065;28;20192;-63
2021/06/05 10:59:48;;;;;;;5.70;5.18;;;23.80;58.80;;;;;;5102011;28;20196;-64
2021/06/05 11:02:45;;;;;;;5.00;4.60;;;23.80;58.90;;;;;;5113679;28;20181;-64
2021/06/05 11:05:17;;;;;;;5.05;4.75;;;23.90;58.80;;;;;;5114824;28;20546;-65
2021/06/05 11:07:44;;;;;;;4.88;4.57;;;23.80;58.90;;;;;;5116212;28;20176;-63
2021/06/05 11:10:10;;;;;;;5.57;5.10;;;23.80;58.80;;;;;;5115457;28;20181;-62
2021/06/05 11:12:35;;;;;;;5.55;4.70;;;23.80;58.80;;;;;;5114548;28;20173;-63
2021/06/05 11:15:00;;;;;;;5.47;4.97;;;23.80;58.80;;;;;;5116137;28;20319;-63
2021/06/05 11:17:30;;;;;;;5.00;4.60;;;23.80;58.90;;;;;;5116291;28;20177;-63
2021/06/05 11:20:05;;;;;;;6.22;5.03;;;23.90;58.90;;;;;;5114397;28;20192;-63
2021/06/05 11:22:50;;;;;;;4.53;4.13;;;23.80;58.90;;;;;;5115801;28;20172;-63
2021/06/05 11:25:15;;;;;;;4.47;4.18;;;23.90;58.80;;;;;;5116351;28;20177;-63
2021/06/05 11:27:41;;;;;;;5.38;4.90;;;23.90;58.80;;;;;;5115527;28;20661;-63
2021/06/05 11:30:21;;;;;;;4.72;4.32;;;23.80;58.90;;;;;;5115871;28;20623;-63
2021/06/05 11:32:50;;;;;;;5.28;4.00;;;23.90;58.90;;;;;;5115201;28;20169;-64
2021/06/05 11:35:52;;;;;;;4.70;4.30;;;23.80;58.80;;;;;;5116192;28;20307;-63
2021/06/05 11:38:17;;;;;;;4.40;4.10;;;23.80;58.80;;;;;;5115875;28;20204;-65
2021/06/05 11:41:01;;;;;;;4.50;4.10;;;23.90;58.80;;;;;;5115161;28;20197;-66
2021/06/05 11:43:30;;;;;;;5.32;4.57;;;23.90;58.70;;;;;;5115901;28;20635;-66
2021/06/05 11:46:01;;;;;;;4.90;4.50;;;23.90;58.90;;;;;;5115767;28;20187;-67
2021/06/05 11:48:37;;;;;;;4.80;4.40;;;23.90;58.90;;;;;;5115405;28;20181;-66
2021/06/05 11:51:38;;;;;;;5.03;4.57;;;23.90;58.90;;;;;;5115586;28;20260;-67
2021/06/05 11:54:17;;;;;;;4.57;4.18;;;24.00;58.80;;;;;;5082224;28;20627;-67
2021/06/05 11:56:56;;;;;;;4.32;3.95;;;23.90;58.80;;;;;;5115415;28;20199;-67
2021/06/05 11:59:41;;;;;;;4.63;4.18;;;23.90;58.80;;;;;;5114234;28;20181;-67
2021/06/05 12:02:29;;;;;;;5.35;4.03;;;23.90;58.80;;;;;;5114923;28;20226;-67
2021/06/05 12:05:06;;;;;;;4.88;4.40;;;23.90;58.90;;;;;;5115017;28;20234;-67
2021/06/05 12:07:41;;;;;;;4.45;4.13;;;23.90;58.90;;;;;;5113863;28;20188;-67
2021/06/05 12:10:09;;;;;;;4.75;4.32;;;23.90;58.80;;;;;;5114872;28;20599;-67
2021/06/05 12:12:46;;;;;;;4.50;4.20;;;23.90;58.90;;;;;;5114674;28;20521;-66
2021/06/05 12:15:20;;;;;;;4.43;4.03;;;23.90;58.90;;;;;;5114419;28;20236;-67
2021/06/05 12:17:53;;;;;;;4.38;4.05;;;23.90;58.90;;;;;;5113708;28;20201;-66
2021/06/05 12:20:42;;;;;;;5.55;3.80;;;24.00;58.90;;;;;;5113861;28;20260;-66
2021/06/05 12:23:33;;;;;;;3.83;3.53;;;24.00;58.70;;;;;;5114002;28;20209;-65
2021/06/05 12:26:01;;;;;;;4.63;4.05;;;24.10;58.60;;;;;;5113447;28;20243;-62
2021/06/05 12:28:28;;;;;;;4.05;3.75;;;24.00;58.60;;;;;;5114138;28;20169;-63
2021/06/05 12:30:55;;;;;;;4.22;3.92;;;24.00;58.70;;;;;;5113656;28;20185;-62
2021/06/05 12:33:32;;;;;;;4.35;4.00;;;24.00;58.70;;;;;;5114640;28;20246;-62
2021/06/05 12:35:58;;;;;;;4.75;3.92;;;24.00;58.70;;;;;;5114605;28;20208;-62
2021/06/05 12:38:43;;;;;;;4.47;3.80;;;24.10;58.70;;;;;;5113607;28;20649;-62
2021/06/05 12:41:10;;;;;;;3.67;3.47;;;24.00;58.60;;;;;;5113397;28;20172;-62
2021/06/05 12:43:38;;;;;;;3.80;3.50;;;24.00;58.50;;;;;;5112470;28;20230;-62
2021/06/05 12:46:05;;;;;;;4.07;3.78;;;24.00;58.40;;;;;;5076613;28;20277;-62
2021/06/05 12:48:31;;;;;;;4.15;3.83;;;24.00;58.40;;;;;;5092615;28;20197;-62
2021/06/05 12:50:57;;;;;;;4.40;4.05;;;24.00;58.40;;;;;;5075651;28;20628;-62
2021/06/05 12:53:24;;;;;;;4.47;4.07;;;24.00;58.50;;;;;;5076196;28;20624;-62
2021/06/05 12:55:52;;;;;;;4.05;3.75;;;23.90;58.50;;;;;;5093457;28;20209;-62
2021/06/05 12:58:44;;;;;;;4.68;4.35;;;23.90;58.50;;;;;;5093307;28;20174;-63
2021/06/05 13:01:38;;;;;;;4.63;4.10;;;23.90;58.50;;;;;;5118179;28;20161;-62
2021/06/05 13:04:06;;;;;;;4.40;4.03;;;23.90;58.50;;;;;;5114175;28;20273;-67